createdAt,value
2022-10-24T00:00:58.763Z,100079.09
2022-10-24T00:03:33.403Z,100088.16
2022-10-24T00:06:07.847Z,100091.69
2022-10-24T00:08:42.929Z,100079.00
2022-10-24T00:11:18.100Z,100070.38
2022-10-24T00:13:51.422Z,100068.25
2022-10-24T00:16:24.474Z,100072.69
2022-10-24T00:18:58.533Z,100082.16
2022-10-24T00:21:31.462Z,100073.72
2022-10-24T00:24:04.258Z,100057.94
2022-10-24T00:26:37.485Z,100054.63
2022-10-24T00:29:11.155Z,100055.91
2022-10-24T00:31:44.578Z,100052.00
2022-10-24T00:34:18.828Z,100062.28
2022-10-24T00:36:53.229Z,100054.69
2022-10-24T00:39:27.915Z,100060.13
2022-10-24T00:42:01.067Z,100062.84
2022-10-24T00:44:38.394Z,100058.69
2022-10-24T00:47:19.812Z,100051.94
2022-10-24T00:50:00.771Z,100053.78
2022-10-24T00:52:37.910Z,100049.16
2022-10-24T00:55:12.796Z,100044.75
2022-10-24T00:57:49.029Z,100038.47
2022-10-24T01:00:26.683Z,100046.03
2022-10-24T01:03:00.676Z,100047.72
2022-10-24T01:05:41.285Z,100039.09
2022-10-24T01:08:28.322Z,100044.19
2022-10-24T01:11:12.426Z,100042.13
2022-10-24T01:13:59.757Z,100047.66
2022-10-24T01:16:42.943Z,100044.56
2022-10-24T01:19:45.348Z,100042.72
2022-10-24T01:22:23.884Z,100045.53
2022-10-24T01:25:12.100Z,100034.19
2022-10-24T01:28:01.738Z,100043.63
2022-10-24T01:30:43.802Z,100039.66
2022-10-24T01:33:21.696Z,100035.19
2022-10-24T01:35:59.104Z,100037.84
2022-10-24T01:38:36.746Z,100038.56
2022-10-24T01:41:13.679Z,100032.41
2022-10-24T01:46:33.527Z,100030.72
2022-10-24T01:49:11.876Z,100022.78
2022-10-24T01:51:46.299Z,100022.00
2022-10-24T01:54:19.755Z,100018.63
2022-10-24T01:56:53.129Z,100010.75
2022-10-24T01:59:44.248Z,100018.41
2022-10-24T02:02:22.432Z,100007.69
2022-10-24T02:04:59.930Z,100009.53
2022-10-24T02:07:38.071Z,100005.13
2022-10-24T02:10:22.515Z,100006.69
2022-10-24T02:13:00.975Z,100014.00
2022-10-24T02:15:39.315Z,100003.97
2022-10-24T02:18:16.277Z,100007.50
2022-10-24T02:20:55.084Z,100008.19
2022-10-24T02:23:35.025Z,100000.47
2022-10-24T02:26:14.419Z,99998.00
2022-10-24T02:28:50.947Z,99999.97
2022-10-24T02:31:25.986Z,100010.25
2022-10-24T02:34:02.489Z,100010.81
2022-10-24T02:36:39.224Z,100008.69
2022-10-24T02:39:14.006Z,100003.16
2022-10-24T02:41:48.159Z,100000.66
2022-10-24T02:44:22.987Z,100004.66
2022-10-24T02:46:59.516Z,100008.91
2022-10-24T02:49:37.281Z,99995.09
2022-10-24T02:52:14.573Z,100005.50
2022-10-24T02:54:48.843Z,100003.53
2022-10-24T02:57:25.798Z,100000.81
2022-10-24T03:00:01.449Z,99990.69
2022-10-24T03:02:36.614Z,99994.84
2022-10-24T03:05:11.671Z,100001.88
2022-10-24T03:07:44.627Z,99993.72
2022-10-24T03:10:17.539Z,99991.94
2022-10-24T03:12:52.445Z,99994.78
2022-10-24T03:15:34.365Z,99978.78
2022-10-24T03:18:07.309Z,99984.09
2022-10-24T03:20:41.401Z,99991.41
2022-10-24T03:23:14.467Z,99984.09
2022-10-24T03:25:47.275Z,99985.25
2022-10-24T03:28:20.299Z,99989.13
2022-10-24T03:30:53.741Z,99997.06
2022-10-24T03:33:31.236Z,99981.13
2022-10-24T03:36:06.584Z,99989.28
2022-10-24T03:38:47.411Z,99995.81
2022-10-24T03:41:21.888Z,99992.69
2022-10-24T03:43:57.960Z,99994.22
2022-10-24T03:46:34.143Z,99989.91
2022-10-24T03:49:07.147Z,99989.28
2022-10-24T03:51:42.346Z,99982.47
2022-10-24T03:54:15.575Z,99991.41
2022-10-24T03:56:51.516Z,99974.72
2022-10-24T03:59:26.839Z,99981.75
2022-10-24T04:02:01.611Z,99986.16
2022-10-24T04:04:34.977Z,99986.84
2022-10-24T04:07:12.039Z,99996.94
2022-10-24T04:09:45.114Z,99987.63
2022-10-24T04:12:21.040Z,99982.63
2022-10-24T04:14:53.996Z,99975.16
2022-10-24T04:17:27.125Z,99977.09
2022-10-24T04:20:00.223Z,99989.69
2022-10-24T04:22:34.777Z,99983.75
2022-10-24T04:25:07.982Z,99990.19
2022-10-24T04:27:40.873Z,99978.63
2022-10-24T04:30:16.870Z,99983.44
2022-10-24T04:32:49.996Z,99972.41
2022-10-24T04:35:22.903Z,99976.03
2022-10-24T04:37:59.343Z,99976.22
2022-10-24T04:40:32.845Z,99975.34
2022-10-24T04:43:05.754Z,99962.13
2022-10-24T04:45:38.826Z,99966.88
2022-10-24T04:48:11.844Z,99968.41
2022-10-24T04:50:46.124Z,99960.34
2022-10-24T04:53:22.770Z,99961.34
2022-10-24T04:55:58.496Z,99955.59
2022-10-24T04:58:31.806Z,99960.91
2022-10-24T05:01:07.889Z,99967.00
2022-10-24T05:03:41.154Z,99963.75
2022-10-24T05:06:15.364Z,99963.25
2022-10-24T05:08:49.969Z,99969.88
2022-10-24T05:11:24.543Z,99971.00
2022-10-24T05:13:57.445Z,99980.97
2022-10-24T05:16:30.163Z,99970.69
2022-10-24T05:19:02.897Z,99974.22
2022-10-24T05:21:35.670Z,99981.75
2022-10-24T05:24:10.351Z,99969.81
2022-10-24T05:26:43.205Z,99980.19
2022-10-24T05:29:16.001Z,99964.28
2022-10-24T05:31:49.084Z,99986.06
2022-10-24T05:34:21.999Z,99985.72
2022-10-24T05:36:55.781Z,99978.63
2022-10-24T05:39:30.201Z,99987.28
2022-10-24T05:42:06.150Z,99980.25
2022-10-24T05:44:39.131Z,99988.94
2022-10-24T05:47:13.839Z,99986.06
2022-10-24T05:49:47.208Z,99987.63
2022-10-24T05:52:20.299Z,99993.59
2022-10-24T05:55:06.430Z,100001.06
2022-10-24T05:57:40.586Z,100004.72
2022-10-24T06:00:14.239Z,100002.00
2022-10-24T06:02:47.793Z,100006.28
2022-10-24T06:05:20.863Z,100008.53
2022-10-24T06:07:53.550Z,100022.06
2022-10-24T06:10:27.846Z,100032.78
2022-10-24T06:13:00.722Z,100028.66
2022-10-24T06:15:33.986Z,100041.31
2022-10-24T06:18:07.115Z,100049.16
2022-10-24T06:20:40.013Z,100046.22
2022-10-24T06:23:12.702Z,100042.97
2022-10-24T06:25:47.302Z,100048.59
2022-10-24T06:28:20.218Z,100034.47
2022-10-24T06:30:54.908Z,100044.84
2022-10-24T06:33:27.690Z,100043.19
2022-10-24T06:36:01.424Z,100054.22
2022-10-24T06:38:34.411Z,100047.94
2022-10-24T06:41:09.179Z,100058.38
2022-10-24T06:43:42.510Z,100059.75
2022-10-24T06:46:17.430Z,100072.41
2022-10-24T06:48:50.430Z,100081.69
2022-10-24T06:51:23.761Z,100086.38
2022-10-24T06:53:56.520Z,100082.41
2022-10-24T06:56:30.936Z,100093.97
2022-10-24T06:59:03.704Z,100102.25
2022-10-24T07:01:36.757Z,100094.47
2022-10-24T07:04:10.169Z,100119.44
2022-10-24T07:06:42.888Z,100120.97
2022-10-24T07:09:15.910Z,100132.69
2022-10-24T07:11:50.103Z,100111.00
2022-10-24T07:14:23.031Z,100133.47
2022-10-24T07:16:55.773Z,100139.41
2022-10-24T07:19:28.524Z,100143.75
2022-10-24T07:22:01.332Z,100151.81
2022-10-24T07:24:34.208Z,100167.94
2022-10-24T07:27:08.435Z,100166.25
2022-10-24T07:29:41.278Z,100160.63
2022-10-24T07:32:14.202Z,100163.75
2022-10-24T07:34:47.775Z,100164.81
2022-10-24T07:37:20.828Z,100177.31
2022-10-24T07:39:53.672Z,100194.25
2022-10-24T07:42:27.768Z,100177.31
2022-10-24T07:45:02.746Z,100194.31
2022-10-24T07:47:35.588Z,100188.94
2022-10-24T07:50:09.549Z,100194.59
2022-10-24T07:52:42.357Z,100201.81
2022-10-24T07:55:15.078Z,100197.84
2022-10-24T07:57:49.182Z,100215.53
2022-10-24T08:00:22.546Z,100218.06
2022-10-24T08:02:55.551Z,100223.25
2022-10-24T08:05:28.483Z,100224.84
2022-10-24T08:08:24.783Z,100232.66
2022-10-24T08:10:54.120Z,100235.13
2022-10-24T08:13:28.203Z,100231.00
2022-10-24T08:16:01.112Z,100238.16
2022-10-24T08:18:38.712Z,100238.44
2022-10-24T08:21:15.267Z,100243.97
2022-10-24T08:23:50.366Z,100262.09
2022-10-24T08:26:25.803Z,100258.91
2022-10-24T08:29:00.124Z,100254.91
2022-10-24T08:31:33.131Z,100261.06
2022-10-24T08:34:06.404Z,100257.34
2022-10-24T08:36:39.300Z,100266.19
2022-10-24T08:39:12.798Z,100279.75
2022-10-24T08:41:50.223Z,100281.09
2022-10-24T08:44:30.810Z,100285.53
2022-10-24T08:47:10.283Z,100280.47
2022-10-24T08:49:51.107Z,100276.63
2022-10-24T08:52:31.651Z,100298.97
2022-10-24T08:55:25.069Z,100304.03
2022-10-24T08:58:00.934Z,100303.38
2022-10-24T09:00:43.241Z,100312.09
2022-10-24T09:03:31.409Z,100301.75
2022-10-24T09:06:15.739Z,100317.75
2022-10-24T09:08:53.217Z,100321.72
2022-10-24T09:11:34.348Z,100310.09
2022-10-24T09:14:14.304Z,100329.34
2022-10-24T09:16:53.530Z,100319.53
2022-10-24T09:19:28.682Z,100333.25
2022-10-24T09:22:03.489Z,100334.88
2022-10-24T09:24:43.718Z,100334.28
2022-10-24T09:29:59.995Z,100339.44
2022-10-24T09:32:37.003Z,100331.09
2022-10-24T09:35:17.055Z,100345.72
2022-10-24T09:37:52.339Z,100349.16
2022-10-24T09:40:28.925Z,100362.44
2022-10-24T09:43:06.367Z,100365.09
2022-10-24T09:45:41.808Z,100357.22
2022-10-24T09:48:26.093Z,100365.97
2022-10-24T09:51:03.556Z,100375.03
2022-10-24T09:53:57.514Z,100380.56
2022-10-24T09:56:41.507Z,100386.88
2022-10-24T09:59:21.155Z,100394.50
2022-10-24T10:01:54.151Z,100398.34
2022-10-24T10:04:30.201Z,100396.81
2022-10-24T10:07:10.333Z,100397.50
2022-10-24T10:09:52.789Z,100405.63
2022-10-24T10:12:34.646Z,100410.59
2022-10-24T10:15:21.159Z,100410.00
2022-10-24T10:17:56.238Z,100426.66
2022-10-24T10:20:34.802Z,100430.59
2022-10-24T10:23:24.357Z,100432.19
2022-10-24T10:26:06.471Z,100433.72
2022-10-24T10:28:46.996Z,100430.50
2022-10-24T10:31:22.305Z,100446.78
2022-10-24T10:34:21.479Z,100447.81
2022-10-24T10:37:23.824Z,100451.53
2022-10-24T10:40:17.003Z,100457.91
2022-10-24T10:43:07.944Z,100464.41
2022-10-24T10:45:43.164Z,100467.09
2022-10-24T10:48:39.691Z,100463.31
2022-10-24T10:51:23.808Z,100468.22
2022-10-24T10:54:08.482Z,100472.13
2022-10-24T10:56:49.620Z,100476.81
2022-10-24T10:59:37.252Z,100479.91
2022-10-24T11:02:28.179Z,100488.47
2022-10-24T11:05:11.101Z,100480.47
2022-10-24T11:07:49.020Z,100485.69
2022-10-24T11:10:27.617Z,100482.81
2022-10-24T11:13:07.196Z,100487.84
2022-10-24T11:15:45.005Z,100484.28
2022-10-24T11:18:23.565Z,100483.19
2022-10-24T11:21:02.838Z,100481.31
2022-10-24T11:26:21.578Z,100489.81
2022-10-24T11:28:59.985Z,100495.53
2022-10-24T11:31:38.887Z,100484.53
2022-10-24T11:34:16.105Z,100496.44
2022-10-24T11:36:55.798Z,100498.72
2022-10-24T11:39:33.633Z,100493.41
2022-10-24T11:42:15.880Z,100506.03
2022-10-24T11:44:55.863Z,100506.38
2022-10-24T11:47:42.380Z,100507.16
2022-10-24T11:50:25.525Z,100509.88
2022-10-24T11:53:05.597Z,100507.09
2022-10-24T11:55:42.782Z,100512.56
2022-10-24T11:58:21.090Z,100514.47
2022-10-24T12:01:14.129Z,100518.84
2022-10-24T12:04:05.789Z,100518.88
2022-10-24T12:07:06.402Z,100519.63
2022-10-24T12:09:52.663Z,100518.53
2022-10-24T12:12:43.282Z,100525.34
2022-10-24T12:15:32.335Z,100517.41
2022-10-24T12:18:10.035Z,100522.78
2022-10-24T12:20:43.502Z,100522.72
2022-10-24T12:23:25.421Z,100525.94
2022-10-24T12:26:07.276Z,100530.41
2022-10-24T12:28:41.342Z,100541.50
2022-10-24T12:31:27.426Z,100540.28
2022-10-24T12:34:34.382Z,100542.47
2022-10-24T12:37:12.239Z,100529.22
2022-10-24T12:39:54.824Z,100542.59
2022-10-24T12:43:14.732Z,100538.22
2022-10-24T12:45:47.363Z,100539.81
2022-10-24T12:48:36.938Z,100555.34
2022-10-24T12:51:40.108Z,100549.56
2022-10-24T12:54:18.656Z,100548.50
2022-10-24T12:57:26.238Z,100542.97
2022-10-24T13:00:01.571Z,100547.53
2022-10-24T13:02:55.917Z,100547.41
2022-10-24T13:05:47.899Z,100554.72
2022-10-24T13:08:44.877Z,100545.41
2022-10-24T13:11:36.738Z,100546.19
2022-10-24T13:14:33.032Z,100544.09
2022-10-24T13:17:13.176Z,100545.72
2022-10-24T13:19:46.416Z,100543.25
2022-10-24T13:22:34.148Z,100546.09
2022-10-24T13:25:21.318Z,100545.34
2022-10-24T13:28:30.329Z,100540.19
2022-10-24T13:31:41.819Z,100538.63
2022-10-24T13:34:24.264Z,100541.75
2022-10-24T13:37:17.709Z,100537.78
2022-10-24T13:39:54.661Z,100541.00
2022-10-24T13:42:32.960Z,100543.97
2022-10-24T13:45:22.758Z,100545.34
2022-10-24T13:48:00.504Z,100553.16
2022-10-24T13:50:37.554Z,100548.38
2022-10-24T13:53:21.021Z,100548.28
2022-10-24T13:56:10.451Z,100550.81
2022-10-24T13:58:45.269Z,100560.16
2022-10-24T14:01:21.111Z,100563.25
2022-10-24T14:03:57.516Z,100560.91
2022-10-24T14:06:34.228Z,100560.81
2022-10-24T14:09:10.529Z,100556.06
2022-10-24T14:11:47.587Z,100565.97
2022-10-24T14:14:28.850Z,100565.88
2022-10-24T14:17:23.035Z,100576.53
2022-10-24T14:19:58.932Z,100573.75
2022-10-24T14:22:39.677Z,100572.75
2022-10-24T14:25:24.295Z,100577.03
2022-10-24T14:28:01.340Z,100569.22
2022-10-24T14:30:35.170Z,100577.81
2022-10-24T14:33:20.742Z,100581.00
2022-10-24T14:35:57.878Z,100588.34
2022-10-24T14:38:31.884Z,100586.97
2022-10-24T14:41:09.816Z,100591.03
2022-10-24T14:43:45.864Z,100595.72
2022-10-24T14:46:39.953Z,100582.34
2022-10-24T14:49:31.867Z,100586.31
2022-10-24T14:52:11.708Z,100586.31
2022-10-24T14:54:51.927Z,100592.59
2022-10-24T14:57:24.785Z,100598.91
2022-10-24T15:00:07.256Z,100601.03
2022-10-24T15:02:43.278Z,100600.19
2022-10-24T15:05:30.883Z,100600.56
2022-10-24T15:08:25.345Z,100596.72
2022-10-24T15:11:25.636Z,100605.38
2022-10-24T15:14:06.638Z,100607.81
2022-10-24T15:16:42.153Z,100602.63
2022-10-24T15:19:19.279Z,100601.59
2022-10-24T15:21:52.102Z,100604.81
2022-10-24T15:24:27.667Z,100615.56
2022-10-24T15:27:11.201Z,100605.22
2022-10-24T15:29:47.138Z,100616.75
2022-10-24T15:32:21.349Z,100616.91
2022-10-24T15:34:55.357Z,100627.38
2022-10-24T15:37:28.623Z,100624.78
2022-10-24T15:40:03.911Z,100617.38
2022-10-24T15:42:36.643Z,100620.63
2022-10-24T15:45:17.944Z,100618.69
2022-10-24T15:47:54.582Z,100625.84
2022-10-24T15:50:27.476Z,100623.97
2022-10-24T15:53:03.103Z,100629.88
2022-10-24T15:55:35.891Z,100626.28
2022-10-24T15:58:12.049Z,100619.69
2022-10-24T16:00:45.294Z,100631.44
2022-10-24T16:03:23.427Z,100633.97
2022-10-24T16:05:58.154Z,100631.19
2022-10-24T16:08:31.434Z,100630.81
2022-10-24T16:11:07.605Z,100620.69
2022-10-24T16:13:43.884Z,100622.28
2022-10-24T16:16:16.635Z,100627.31
2022-10-24T16:18:50.790Z,100629.25
2022-10-24T16:21:23.769Z,100632.47
2022-10-24T16:23:56.497Z,100638.03
2022-10-24T16:26:29.427Z,100638.91
2022-10-24T16:29:05.835Z,100645.44
2022-10-24T16:31:38.788Z,100641.75
2022-10-24T16:34:12.786Z,100650.06
2022-10-24T16:36:45.670Z,100651.91
2022-10-24T16:39:18.666Z,100647.38
2022-10-24T16:41:55.212Z,100657.25
2022-10-24T16:44:28.542Z,100658.13
2022-10-24T16:47:01.479Z,100660.91
2022-10-24T16:49:35.768Z,100668.19
2022-10-24T16:52:08.980Z,100669.22
2022-10-24T16:54:42.072Z,100670.91
2022-10-24T16:57:15.046Z,100673.25
2022-10-24T16:59:48.410Z,100683.53
2022-10-24T17:02:21.440Z,100679.72
2022-10-24T17:04:55.664Z,100674.94
2022-10-24T17:07:28.437Z,100686.72
2022-10-24T17:10:01.217Z,100683.13
2022-10-24T17:12:34.165Z,100691.44
2022-10-24T17:15:08.742Z,100689.16
2022-10-24T17:17:41.529Z,100689.50
2022-10-24T17:20:17.334Z,100690.44
2022-10-24T17:22:50.729Z,100696.31
2022-10-24T17:25:25.880Z,100701.84
2022-10-24T17:27:58.916Z,100709.72
2022-10-24T17:30:31.683Z,100706.53
2022-10-24T17:33:04.667Z,100704.66
2022-10-24T17:35:42.790Z,100711.28
2022-10-24T17:38:29.062Z,100707.53
2022-10-24T17:41:08.837Z,100713.91
2022-10-24T17:43:41.947Z,100728.38
2022-10-24T17:46:18.406Z,100723.63
2022-10-24T17:48:51.656Z,100730.75
2022-10-24T17:51:28.329Z,100725.69
2022-10-24T17:54:01.350Z,100729.63
2022-10-24T17:56:33.951Z,100718.53
2022-10-24T17:59:06.642Z,100718.16
2022-10-24T18:01:39.703Z,100715.06
2022-10-24T18:04:12.785Z,100720.16
2022-10-24T18:06:53.354Z,100709.84
2022-10-24T18:09:29.729Z,100721.72
2022-10-24T18:12:02.841Z,100727.25
2022-10-24T18:14:37.458Z,100730.44
2022-10-24T18:17:11.245Z,100725.25
2022-10-24T18:19:44.338Z,100737.94
2022-10-24T18:22:18.802Z,100743.84
2022-10-24T18:24:51.618Z,100736.41
2022-10-24T18:27:24.638Z,100743.19
2022-10-24T18:29:57.375Z,100744.41
2022-10-24T18:32:30.316Z,100744.41
2022-10-24T18:35:03.230Z,100748.66
2022-10-24T18:37:38.086Z,100747.91
2022-10-24T18:40:12.214Z,100752.66
2022-10-24T18:42:51.080Z,100745.50
2022-10-24T18:45:27.210Z,100746.34
2022-10-24T18:48:01.038Z,100757.47
2022-10-24T18:50:34.526Z,100755.47
2022-10-24T18:53:24.494Z,100762.19
2022-10-24T18:55:57.764Z,100764.50
2022-10-24T18:58:31.096Z,100768.47
2022-10-24T19:01:04.677Z,100776.03
2022-10-24T19:03:38.578Z,100772.41
2022-10-24T19:06:16.947Z,100774.88
2022-10-24T19:08:53.189Z,100775.19
2022-10-24T19:11:26.438Z,100780.41
2022-10-24T19:13:59.536Z,100772.13
2022-10-24T19:16:32.686Z,100779.63
2022-10-24T19:19:07.042Z,100771.69
2022-10-24T19:21:40.090Z,100778.13
2022-10-24T19:24:14.906Z,100771.72
2022-10-24T19:26:49.996Z,100774.91
2022-10-24T19:29:23.010Z,100778.91
2022-10-24T19:31:55.897Z,100772.56
2022-10-24T19:34:31.903Z,100782.47
2022-10-24T19:37:04.984Z,100781.28
2022-10-24T19:39:39.707Z,100778.09
2022-10-24T19:42:15.489Z,100772.66
2022-10-24T19:44:54.599Z,100779.34
2022-10-24T19:47:27.743Z,100782.47
2022-10-24T19:50:01.538Z,100776.94
2022-10-24T19:52:34.566Z,100784.16
2022-10-24T19:55:09.103Z,100783.03
2022-10-24T19:57:43.340Z,100787.38
2022-10-24T20:00:18.524Z,100780.22
2022-10-24T20:02:53.033Z,100780.66
2022-10-24T20:05:27.965Z,100787.34
2022-10-24T20:08:00.848Z,100782.69
2022-10-24T20:10:36.053Z,100783.78
2022-10-24T20:13:11.091Z,100784.59
2022-10-24T20:15:44.607Z,100789.41
2022-10-24T20:18:20.924Z,100784.66
2022-10-24T20:20:54.673Z,100786.59
2022-10-24T20:23:30.076Z,100792.53
2022-10-24T20:26:09.836Z,100789.38
2022-10-24T20:28:44.783Z,100788.63
2022-10-24T20:31:26.449Z,100790.19
2022-10-24T20:34:06.747Z,100790.19
2022-10-24T20:36:44.808Z,100804.38
2022-10-24T20:39:21.237Z,100803.59
2022-10-24T20:41:59.019Z,100806.81
2022-10-24T20:44:34.175Z,100806.00
2022-10-24T20:47:07.011Z,100815.41
2022-10-24T20:49:39.674Z,100817.38
2022-10-24T20:54:50.108Z,100826.16
2022-10-24T20:57:24.365Z,100827.41
2022-10-24T20:59:58.402Z,100832.09
2022-10-24T21:02:31.902Z,100838.06
2022-10-24T21:05:05.919Z,100845.16
2022-10-24T21:07:40.457Z,100840.00
2022-10-24T21:10:13.441Z,100839.19
2022-10-24T21:12:48.026Z,100843.94
2022-10-24T21:15:21.252Z,100846.34
2022-10-24T21:17:54.154Z,100848.72
2022-10-24T21:20:27.198Z,100840.03
2022-10-24T21:23:02.795Z,100850.72
2022-10-24T21:25:35.723Z,100853.47
2022-10-24T21:28:13.836Z,100851.09
2022-10-24T21:30:48.093Z,100846.72
2022-10-24T21:33:21.188Z,100851.88
2022-10-24T21:35:56.222Z,100854.63
2022-10-24T21:38:29.192Z,100851.88
2022-10-24T21:41:02.823Z,100859.41
2022-10-24T21:43:41.000Z,100858.22
2022-10-24T21:46:16.267Z,100858.19
2022-10-24T21:48:50.874Z,100864.16
2022-10-24T21:51:26.139Z,100863.38
2022-10-24T21:54:01.080Z,100859.03
2022-10-24T21:56:37.038Z,100859.78
2022-10-24T21:59:14.384Z,100865.31
2022-10-24T22:01:53.000Z,100875.19
2022-10-24T22:04:26.190Z,100875.97
2022-10-24T22:06:59.146Z,100884.28
2022-10-24T22:09:33.983Z,100886.63
2022-10-24T22:12:07.225Z,100884.28
2022-10-24T22:14:43.940Z,100889.44
2022-10-24T22:17:22.335Z,100889.03
2022-10-24T22:19:55.254Z,100892.56
2022-10-24T22:22:28.010Z,100895.72
2022-10-24T22:25:01.245Z,100896.53
2022-10-24T22:27:35.610Z,100902.06
2022-10-24T22:30:10.886Z,100903.22
2022-10-24T22:32:44.474Z,100914.31
2022-10-24T22:35:18.514Z,100909.91
2022-10-24T22:37:56.031Z,100912.34
2022-10-24T22:40:31.315Z,100909.19
2022-10-24T22:43:04.515Z,100926.94
2022-10-24T22:45:41.690Z,100917.44
2022-10-24T22:48:22.395Z,100919.44
2022-10-24T22:50:59.388Z,100919.41
2022-10-24T22:53:32.850Z,100929.66
2022-10-24T22:56:14.564Z,100936.38
2022-10-24T22:58:47.862Z,100940.31
2022-10-24T23:01:33.634Z,100939.91
2022-10-24T23:04:21.863Z,100942.28
2022-10-24T23:06:59.360Z,100940.31
2022-10-24T23:09:32.185Z,100936.38
2022-10-24T23:12:14.439Z,100937.16
2022-10-24T23:14:50.543Z,100946.63
2022-10-24T23:17:27.753Z,100946.63
2022-10-24T23:20:01.674Z,100938.34
2022-10-24T23:22:34.898Z,100947.44
2022-10-24T23:25:10.046Z,100950.59
2022-10-24T23:27:45.213Z,100945.84
2022-10-24T23:30:24.376Z,100947.78
2022-10-24T23:32:59.758Z,100955.31
2022-10-24T23:35:33.147Z,100957.66
2022-10-24T23:38:12.079Z,100958.06
2022-10-24T23:40:45.370Z,100958.09
2022-10-24T23:43:22.054Z,100966.38
2022-10-24T23:46:00.421Z,100965.59
2022-10-24T23:48:47.908Z,100960.88
2022-10-24T23:51:30.976Z,100966.78
2022-10-24T23:54:06.219Z,100971.50
2022-10-24T23:56:39.936Z,100975.88
2022-10-24T23:59:12.875Z,100981.75
